METAR Data
IDs: Format: Raw Decoded Include TAF

Data at: 2156 UTC 01 Dec 2021

METAR for:KFGX (Flemingsburg Arpt, KY, US)
Text:KFGX 012135Z AUTO 20006KT 10SM OVC043 12/06 A2992 RMK AO2 T01160063
Temperature: 11.6°C ( 53°F)
Dewpoint: 6.3°C ( 43°F) [RH = 70%]
Pressure (altimeter):29.92 inches Hg (1013.3 mb)
Winds:from the SSW (200 degrees) at 7 MPH (6 knots; 3.1 m/s)
Visibility:10 or more sm (16+ km)
Ceiling:4300 feet AGL
Clouds: overcast cloud deck at 4300 feet AGL
QC Flag:automated observation with no human augmentation